sensor_id;sensor_type;location;lat;lon;timestamp;pressure;altitude;pressure_sealevel;temperature;humidity
75991;BME280;64673;52.276;10.560;2023-03-31T00:01:07;99693.75;;;10.39;88.94
75991;BME280;64673;52.276;10.560;2023-03-31T00:03:32;99697.78;;;10.41;89.62
75991;BME280;64673;52.276;10.560;2023-03-31T00:05:59;99695.69;;;10.38;88.88
75991;BME280;64673;52.276;10.560;2023-03-31T00:08:26;99688.69;;;10.37;87.96
75991;BME280;64673;52.276;10.560;2023-03-31T00:10:58;99690.06;;;10.35;89.10
75991;BME280;64673;52.276;10.560;2023-03-31T00:13:24;99686.28;;;10.36;88.97
75991;BME280;64673;52.276;10.560;2023-03-31T00:16:01;99683.97;;;10.48;87.48
75991;BME280;64673;52.276;10.560;2023-03-31T00:18:27;99676.28;;;10.36;88.08
75991;BME280;64673;52.276;10.560;2023-03-31T00:20:54;99670.66;;;10.33;87.75
75991;BME280;64673;52.276;10.560;2023-03-31T00:23:21;99675.34;;;10.27;88.30
75991;BME280;64673;52.276;10.560;2023-03-31T00:25:52;99672.28;;;10.34;87.83
75991;BME280;64673;52.276;10.560;2023-03-31T00:28:17;99666.88;;;10.34;86.79
75991;BME280;64673;52.276;10.560;2023-03-31T00:30:42;99657.72;;;10.35;87.48
75991;BME280;64673;52.276;10.560;2023-03-31T00:33:08;99658.38;;;10.45;85.04
75991;BME280;64673;52.276;10.560;2023-03-31T00:35:34;99656.81;;;10.39;85.43
75991;BME280;64673;52.276;10.560;2023-03-31T00:37:59;99648.59;;;10.49;84.79
75991;BME280;64673;52.276;10.560;2023-03-31T00:40:25;99652.03;;;10.55;84.63
75991;BME280;64673;52.276;10.560;2023-03-31T00:42:50;99649.06;;;10.56;84.08
75991;BME280;64673;52.276;10.560;2023-03-31T00:47:43;99651.53;;;10.53;82.88
75991;BME280;64673;52.276;10.560;2023-03-31T00:50:19;99646.88;;;10.58;82.23
75991;BME280;64673;52.276;10.560;2023-03-31T00:52:48;99644.09;;;10.63;82.76
75991;BME280;64673;52.276;10.560;2023-03-31T00:55:21;99639.50;;;10.64;83.31
75991;BME280;64673;52.276;10.560;2023-03-31T00:57:48;99641.41;;;10.63;81.89
75991;BME280;64673;52.276;10.560;2023-03-31T01:00:17;99615.38;;;10.54;82.96
75991;BME280;64673;52.276;10.560;2023-03-31T01:02:49;99625.09;;;10.55;82.70
75991;BME280;64673;52.276;10.560;2023-03-31T01:05:25;99631.34;;;10.69;81.67
75991;BME280;64673;52.276;10.560;2023-03-31T01:07:53;99622.09;;;10.75;80.35
75991;BME280;64673;52.276;10.560;2023-03-31T01:10:19;99621.50;;;10.78;80.97
75991;BME280;64673;52.276;10.560;2023-03-31T01:12:49;99617.91;;;10.83;80.26
75991;BME280;64673;52.276;10.560;2023-03-31T01:15:16;99608.44;;;10.85;80.75
75991;BME280;64673;52.276;10.560;2023-03-31T01:17:42;99601.38;;;10.71;81.18
75991;BME280;64673;52.276;10.560;2023-03-31T01:20:47;99593.94;;;10.81;80.88
75991;BME280;64673;52.276;10.560;2023-03-31T01:29:07;99579.50;;;10.72;80.19
75991;BME280;64673;52.276;10.560;2023-03-31T01:42:34;99562.53;;;10.72;79.46
75991;BME280;64673;52.276;10.560;2023-03-31T01:47:49;99567.78;;;10.63;80.73
75991;BME280;64673;52.276;10.560;2023-03-31T01:55:28;99551.66;;;10.77;79.16
75991;BME280;64673;52.276;10.560;2023-03-31T02:00:33;99549.84;;;10.72;78.89
75991;BME280;64673;52.276;10.560;2023-03-31T02:05:32;99544.91;;;10.79;78.34
75991;BME280;64673;52.276;10.560;2023-03-31T02:08:09;99541.69;;;10.77;79.58
75991;BME280;64673;52.276;10.560;2023-03-31T02:10:38;99533.31;;;10.79;78.64
75991;BME280;64673;52.276;10.560;2023-03-31T02:13:06;99533.09;;;10.75;79.01
75991;BME280;64673;52.276;10.560;2023-03-31T02:15:35;99530.69;;;10.74;78.94
75991;BME280;64673;52.276;10.560;2023-03-31T02:18:03;99522.47;;;10.65;78.99
75991;BME280;64673;52.276;10.560;2023-03-31T02:20:39;99520.78;;;10.69;78.33
75991;BME280;64673;52.276;10.560;2023-03-31T02:23:12;99517.47;;;10.58;78.85
75991;BME280;64673;52.276;10.560;2023-03-31T02:25:50;99506.41;;;10.41;79.73
75991;BME280;64673;52.276;10.560;2023-03-31T02:28:20;99507.59;;;10.35;79.46
75991;BME280;64673;52.276;10.560;2023-03-31T02:33:42;99515.97;;;10.34;79.95
75991;BME280;64673;52.276;10.560;2023-03-31T02:36:07;99501.41;;;10.35;79.27
75991;BME280;64673;52.276;10.560;2023-03-31T02:38:42;99500.47;;;10.25;80.17
75991;BME280;64673;52.276;10.560;2023-03-31T02:41:10;99498.25;;;10.09;81.21
75991;BME280;64673;52.276;10.560;2023-03-31T02:43:35;99490.19;;;10.27;80.13
75991;BME280;64673;52.276;10.560;2023-03-31T02:46:01;99495.28;;;10.29;79.65
75991;BME280;64673;52.276;10.560;2023-03-31T02:48:29;99487.13;;;10.15;79.87
75991;BME280;64673;52.276;10.560;2023-03-31T03:02:49;99462.94;;;10.10;80.13
75991;BME280;64673;52.276;10.560;2023-03-31T03:05:44;99454.28;;;9.95;81.25
75991;BME280;64673;52.276;10.560;2023-03-31T03:11:07;99466.03;;;9.85;81.50
75991;BME280;64673;52.276;10.560;2023-03-31T03:13:50;99452.97;;;9.92;81.30
75991;BME280;64673;52.276;10.560;2023-03-31T03:16:24;99450.34;;;9.87;81.62
75991;BME280;64673;52.276;10.560;2023-03-31T03:19:03;99450.22;;;9.78;82.42
75991;BME280;64673;52.276;10.560;2023-03-31T03:21:30;99443.06;;;9.87;81.48
75991;BME280;64673;52.276;10.560;2023-03-31T03:23:56;99441.78;;;9.85;81.82
75991;BME280;64673;52.276;10.560;2023-03-31T03:26:22;99446.00;;;9.91;81.65
75991;BME280;64673;52.276;10.560;2023-03-31T03:28:49;99435.72;;;9.93;81.95
75991;BME280;64673;52.276;10.560;2023-03-31T03:31:15;99434.53;;;9.99;80.81
75991;BME280;64673;52.276;10.560;2023-03-31T03:33:41;99438.41;;;9.93;81.50
75991;BME280;64673;52.276;10.560;2023-03-31T03:36:07;99434.34;;;9.96;81.23
75991;BME280;64673;52.276;10.560;2023-03-31T03:38:32;99430.75;;;10.00;81.89
75991;BME280;64673;52.276;10.560;2023-03-31T03:40:58;99427.19;;;10.05;81.13
75991;BME280;64673;52.276;10.560;2023-03-31T03:43:24;99426.81;;;10.11;81.02
75991;BME280;64673;52.276;10.560;2023-03-31T03:45:50;99418.38;;;10.18;80.71
75991;BME280;64673;52.276;10.560;2023-03-31T03:48:16;99419.25;;;10.13;80.67
75991;BME280;64673;52.276;10.560;2023-03-31T03:50:42;99415.91;;;10.21;79.98
75991;BME280;64673;52.276;10.560;2023-03-31T03:53:08;99402.72;;;10.20;80.45
75991;BME280;64673;52.276;10.560;2023-03-31T03:55:34;99401.56;;;10.26;80.06
75991;BME280;64673;52.276;10.560;2023-03-31T03:57:59;99400.75;;;10.25;79.88
75991;BME280;64673;52.276;10.560;2023-03-31T04:00:25;99397.34;;;10.20;80.72
75991;BME280;64673;52.276;10.560;2023-03-31T04:02:50;99390.84;;;10.21;79.92
75991;BME280;64673;52.276;10.560;2023-03-31T04:05:16;99395.94;;;10.22;80.08
75991;BME280;64673;52.276;10.560;2023-03-31T04:07:41;99389.63;;;10.13;80.74
75991;BME280;64673;52.276;10.560;2023-03-31T04:10:07;99377.22;;;10.12;80.17
75991;BME280;64673;52.276;10.560;2023-03-31T04:12:34;99374.72;;;10.02;81.06
75991;BME280;64673;52.276;10.560;2023-03-31T04:14:59;99367.72;;;10.01;80.88
75991;BME280;64673;52.276;10.560;2023-03-31T04:17:24;99356.66;;;10.03;80.09
75991;BME280;64673;52.276;10.560;2023-03-31T04:19:57;99359.72;;;9.96;81.35
75991;BME280;64673;52.276;10.560;2023-03-31T04:22:27;99348.53;;;9.89;81.42
75991;BME280;64673;52.276;10.560;2023-03-31T04:25:00;99341.63;;;9.83;81.71
75991;BME280;64673;52.276;10.560;2023-03-31T04:27:25;99336.88;;;9.75;81.51
75991;BME280;64673;52.276;10.560;2023-03-31T04:29:53;99339.84;;;9.60;82.09
75991;BME280;64673;52.276;10.560;2023-03-31T04:32:19;99333.44;;;9.55;82.25
75991;BME280;64673;52.276;10.560;2023-03-31T04:34:46;99322.09;;;9.59;81.90
75991;BME280;64673;52.276;10.560;2023-03-31T04:37:12;99312.50;;;9.52;82.69
75991;BME280;64673;52.276;10.560;2023-03-31T04:39:37;99310.59;;;9.34;83.56
75991;BME280;64673;52.276;10.560;2023-03-31T04:42:02;99297.59;;;9.23;84.23
75991;BME280;64673;52.276;10.560;2023-03-31T04:44:28;99300.28;;;9.41;82.87
75991;BME280;64673;52.276;10.560;2023-03-31T04:46:54;99289.72;;;9.45;82.23
75991;BME280;64673;52.276;10.560;2023-03-31T04:49:19;99280.94;;;9.39;83.75
75991;BME280;64673;52.276;10.560;2023-03-31T04:51:45;99278.16;;;9.44;82.98
75991;BME280;64673;52.276;10.560;2023-03-31T04:54:11;99277.50;;;9.34;83.59
75991;BME280;64673;52.276;10.560;2023-03-31T04:56:36;99264.41;;;9.46;82.36
75991;BME280;64673;52.276;10.560;2023-03-31T04:59:01;99259.84;;;9.46;82.42
75991;BME280;64673;52.276;10.560;2023-03-31T05:01:28;99261.53;;;9.42;83.33
75991;BME280;64673;52.276;10.560;2023-03-31T05:03:57;99255.81;;;9.44;82.50
75991;BME280;64673;52.276;10.560;2023-03-31T05:06:22;99251.00;;;9.27;84.52
75991;BME280;64673;52.276;10.560;2023-03-31T05:08:48;99243.28;;;9.39;83.85
75991;BME280;64673;52.276;10.560;2023-03-31T05:11:13;99244.09;;;9.53;82.52
75991;BME280;64673;52.276;10.560;2023-03-31T05:13:38;99236.16;;;9.62;82.36
75991;BME280;64673;52.276;10.560;2023-03-31T05:16:08;99242.34;;;9.63;82.32
75991;BME280;64673;52.276;10.560;2023-03-31T05:18:34;99236.97;;;9.63;82.24
75991;BME280;64673;52.276;10.560;2023-03-31T05:21:11;99227.81;;;9.64;82.99
75991;BME280;64673;52.276;10.560;2023-03-31T05:23:37;99220.72;;;9.68;83.04
75991;BME280;64673;52.276;10.560;2023-03-31T05:26:02;99210.84;;;9.77;81.90
75991;BME280;64673;52.276;10.560;2023-03-31T05:28:27;99213.47;;;9.82;82.59
75991;BME280;64673;52.276;10.560;2023-03-31T05:30:53;99209.69;;;9.83;82.96
75991;BME280;64673;52.276;10.560;2023-03-31T05:33:18;99201.72;;;9.91;81.72
75991;BME280;64673;52.276;10.560;2023-03-31T05:35:43;99199.81;;;9.92;82.63
75991;BME280;64673;52.276;10.560;2023-03-31T05:38:09;99199.72;;;9.97;81.30
75991;BME280;64673;52.276;10.560;2023-03-31T05:40:34;99202.72;;;9.96;82.34
75991;BME280;64673;52.276;10.560;2023-03-31T05:43:02;99197.94;;;9.93;83.14
75991;BME280;64673;52.276;10.560;2023-03-31T05:45:27;99197.16;;;10.06;81.88
75991;BME280;64673;52.276;10.560;2023-03-31T05:47:53;99193.16;;;10.03;82.01
75991;BME280;64673;52.276;10.560;2023-03-31T05:50:18;99197.16;;;10.19;81.44
75991;BME280;64673;52.276;10.560;2023-03-31T05:52:43;99198.66;;;10.25;81.64
75991;BME280;64673;52.276;10.560;2023-03-31T05:55:09;99199.34;;;10.31;80.96
75991;BME280;64673;52.276;10.560;2023-03-31T05:57:34;99199.47;;;10.26;80.80
75991;BME280;64673;52.276;10.560;2023-03-31T05:59:59;99190.75;;;10.29;80.51
75991;BME280;64673;52.276;10.560;2023-03-31T06:02:25;99192.19;;;10.26;81.15
75991;BME280;64673;52.276;10.560;2023-03-31T06:04:50;99194.38;;;10.24;82.06
75991;BME280;64673;52.276;10.560;2023-03-31T06:07:16;99199.34;;;10.31;80.96
75991;BME280;64673;52.276;10.560;2023-03-31T06:09:42;99207.13;;;10.33;80.42
75991;BME280;64673;52.276;10.560;2023-03-31T06:12:07;99198.38;;;10.27;81.56
75991;BME280;64673;52.276;10.560;2023-03-31T06:14:32;99200.75;;;10.28;81.01
75991;BME280;64673;52.276;10.560;2023-03-31T06:16:58;99188.78;;;10.35;81.39
75991;BME280;64673;52.276;10.560;2023-03-31T06:19:23;99189.06;;;10.33;81.79
75991;BME280;64673;52.276;10.560;2023-03-31T06:21:49;99184.06;;;10.40;80.71
75991;BME280;64673;52.276;10.560;2023-03-31T06:24:14;99173.91;;;10.37;81.68
75991;BME280;64673;52.276;10.560;2023-03-31T06:26:40;99170.28;;;10.42;80.88
75991;BME280;64673;52.276;10.560;2023-03-31T06:29:05;99163.22;;;10.46;81.18
75991;BME280;64673;52.276;10.560;2023-03-31T06:31:30;99154.19;;;10.50;80.93
75991;BME280;64673;52.276;10.560;2023-03-31T06:33:56;99152.78;;;10.53;79.98
75991;BME280;64673;52.276;10.560;2023-03-31T06:36:21;99152.59;;;10.49;81.34
75991;BME280;64673;52.276;10.560;2023-03-31T06:38:48;99141.19;;;10.66;80.69
75991;BME280;64673;52.276;10.560;2023-03-31T06:41:15;99131.00;;;10.63;80.53
75991;BME280;64673;52.276;10.560;2023-03-31T06:43:40;99136.06;;;10.78;80.16
75991;BME280;64673;52.276;10.560;2023-03-31T06:46:05;99129.94;;;10.86;80.69
75991;BME280;64673;52.276;10.560;2023-03-31T06:48:31;99138.06;;;10.95;80.91
75991;BME280;64673;52.276;10.560;2023-03-31T06:51:02;99134.47;;;10.99;79.27
75991;BME280;64673;52.276;10.560;2023-03-31T06:53:28;99139.47;;;10.92;79.35
75991;BME280;64673;52.276;10.560;2023-03-31T06:55:54;99145.25;;;10.99;79.96
75991;BME280;64673;52.276;10.560;2023-03-31T06:58:19;99133.03;;;11.02;79.89
75991;BME280;64673;52.276;10.560;2023-03-31T07:00:45;99131.88;;;10.94;79.57
75991;BME280;64673;52.276;10.560;2023-03-31T07:03:11;99123.50;;;10.96;79.33
75991;BME280;64673;52.276;10.560;2023-03-31T07:05:36;99131.88;;;10.94;79.63
75991;BME280;64673;52.276;10.560;2023-03-31T07:08:02;99123.00;;;10.94;79.76
75991;BME280;64673;52.276;10.560;2023-03-31T07:10:30;99117.25;;;11.09;79.21
75991;BME280;64673;52.276;10.560;2023-03-31T07:12:55;99116.19;;;11.19;78.97
75991;BME280;64673;52.276;10.560;2023-03-31T07:15:21;99121.31;;;11.29;78.80
75991;BME280;64673;52.276;10.560;2023-03-31T07:17:47;99127.72;;;11.33;79.23
75991;BME280;64673;52.276;10.560;2023-03-31T07:20:16;99127.06;;;11.36;79.30
75991;BME280;64673;52.276;10.560;2023-03-31T07:22:43;99123.19;;;11.20;82.24
75991;BME280;64673;52.276;10.560;2023-03-31T07:25:10;99122.03;;;11.12;82.04
75991;BME280;64673;52.276;10.560;2023-03-31T07:27:36;99121.84;;;11.09;81.95
75991;BME280;64673;52.276;10.560;2023-03-31T07:30:04;99119.63;;;11.11;81.69
75991;BME280;64673;52.276;10.560;2023-03-31T07:32:29;99111.41;;;11.16;81.64
75991;BME280;64673;52.276;10.560;2023-03-31T07:34:55;99106.31;;;10.92;81.96
75991;BME280;64673;52.276;10.560;2023-03-31T07:37:20;99106.41;;;11.00;82.73
75991;BME280;64673;52.276;10.560;2023-03-31T07:39:45;99108.03;;;11.10;83.09
75991;BME280;64673;52.276;10.560;2023-03-31T07:42:11;99111.34;;;11.07;81.49
75991;BME280;64673;52.276;10.560;2023-03-31T07:44:36;99106.41;;;11.00;82.10
75991;BME280;64673;52.276;10.560;2023-03-31T07:47:02;99101.66;;;11.06;82.41
75991;BME280;64673;52.276;10.560;2023-03-31T07:49:29;99093.25;;;11.08;82.84
75991;BME280;64673;52.276;10.560;2023-03-31T07:51:55;99083.06;;;11.05;82.53
75991;BME280;64673;52.276;10.560;2023-03-31T07:54:20;99078.78;;;11.04;82.55
75991;BME280;64673;52.276;10.560;2023-03-31T07:56:46;99077.69;;;11.05;83.80
75991;BME280;64673;52.276;10.560;2023-03-31T07:59:11;99077.25;;;11.11;82.53
75991;BME280;64673;52.276;10.560;2023-03-31T08:01:36;99073.63;;;11.16;82.67
75991;BME280;64673;52.276;10.560;2023-03-31T08:04:02;99075.03;;;11.13;83.21
75991;BME280;64673;52.276;10.560;2023-03-31T08:06:28;99073.63;;;11.16;81.79
75991;BME280;64673;52.276;10.560;2023-03-31T08:08:54;99065.66;;;11.11;82.64
75991;BME280;64673;52.276;10.560;2023-03-31T08:11:20;99065.19;;;11.09;82.93
75991;BME280;64673;52.276;10.560;2023-03-31T08:13:46;99060.28;;;11.11;81.30
75991;BME280;64673;52.276;10.560;2023-03-31T08:16:12;99060.88;;;11.08;82.36
75991;BME280;64673;52.276;10.560;2023-03-31T08:18:37;99059.09;;;11.03;81.93
75991;BME280;64673;52.276;10.560;2023-03-31T08:21:03;99047.84;;;11.01;83.59
75991;BME280;64673;52.276;10.560;2023-03-31T08:23:28;99047.88;;;11.10;83.09
75991;BME280;64673;52.276;10.560;2023-03-31T08:25:53;99038.53;;;11.16;82.54
75991;BME280;64673;52.276;10.560;2023-03-31T08:28:19;99031.06;;;11.13;85.54
75991;BME280;64673;52.276;10.560;2023-03-31T08:30:44;99034.56;;;11.13;84.29
75991;BME280;64673;52.276;10.560;2023-03-31T08:33:10;99026.31;;;11.10;85.52
75991;BME280;64673;52.276;10.560;2023-03-31T08:35:38;99028.56;;;11.25;83.80
75991;BME280;64673;52.276;10.560;2023-03-31T08:38:04;99021.84;;;11.14;84.03
75991;BME280;64673;52.276;10.560;2023-03-31T08:40:31;99019.84;;;11.19;85.27
75991;BME280;64673;52.276;10.560;2023-03-31T08:43:21;99013.19;;;11.25;83.78
75991;BME280;64673;52.276;10.560;2023-03-31T08:45:49;99009.06;;;11.28;85.65
75991;BME280;64673;52.276;10.560;2023-03-31T08:48:31;98998.88;;;11.25;84.35
75991;BME280;64673;52.276;10.560;2023-03-31T08:51:12;99003.22;;;11.34;82.61
75991;BME280;64673;52.276;10.560;2023-03-31T08:53:42;99000.00;;;11.24;83.98
75991;BME280;64673;52.276;10.560;2023-03-31T08:56:16;98990.19;;;11.28;83.67
75991;BME280;64673;52.276;10.560;2023-03-31T08:58:45;98982.25;;;11.23;81.98
75991;BME280;64673;52.276;10.560;2023-03-31T09:04:10;98977.50;;;11.37;82.78
75991;BME280;64673;52.276;10.560;2023-03-31T09:09:18;98948.59;;;11.29;83.45
75991;BME280;64673;52.276;10.560;2023-03-31T09:11:52;98961.50;;;11.41;82.29
75991;BME280;64673;52.276;10.560;2023-03-31T09:14:24;98955.44;;;11.35;82.08
75991;BME280;64673;52.276;10.560;2023-03-31T09:22:37;98951.31;;;11.37;80.24
75991;BME280;64673;52.276;10.560;2023-03-31T09:25:25;98948.63;;;11.46;80.31
75991;BME280;64673;52.276;10.560;2023-03-31T09:27:55;98945.78;;;11.43;80.47
75991;BME280;64673;52.276;10.560;2023-03-31T09:30:30;98946.41;;;11.48;80.39
75991;BME280;64673;52.276;10.560;2023-03-31T09:35:38;98941.69;;;11.62;79.77
75991;BME280;64673;52.276;10.560;2023-03-31T09:38:03;98931.50;;;11.59;80.09
75991;BME280;64673;52.276;10.560;2023-03-31T09:40:28;98929.91;;;11.58;79.95
75991;BME280;64673;52.276;10.560;2023-03-31T09:43:05;98933.41;;;11.50;80.05
75991;BME280;64673;52.276;10.560;2023-03-31T09:45:31;98926.88;;;11.43;80.39
75991;BME280;64673;52.276;10.560;2023-03-31T09:48:00;98926.22;;;11.46;80.34
75991;BME280;64673;52.276;10.560;2023-03-31T09:50:28;98921.28;;;11.22;81.73
75991;BME280;64673;52.276;10.560;2023-03-31T09:52:56;98919.03;;;11.24;82.76
75991;BME280;64673;52.276;10.560;2023-03-31T09:55:32;98915.53;;;11.23;80.72
75991;BME280;64673;52.276;10.560;2023-03-31T09:58:05;98907.78;;;11.22;82.25
75991;BME280;64673;52.276;10.560;2023-03-31T10:00:33;98912.34;;;11.13;82.40
75991;BME280;64673;52.276;10.560;2023-03-31T10:03:01;98907.22;;;11.02;81.58
75991;BME280;64673;52.276;10.560;2023-03-31T10:05:32;98906.41;;;10.93;82.75
75991;BME280;64673;52.276;10.560;2023-03-31T10:08:18;98899.91;;;10.94;83.17
75991;BME280;64673;52.276;10.560;2023-03-31T10:10:52;98912.84;;;10.75;83.08
75991;BME280;64673;52.276;10.560;2023-03-31T10:13:21;98908.63;;;10.60;85.52
75991;BME280;64673;52.276;10.560;2023-03-31T10:15:51;98919.91;;;10.62;86.16
75991;BME280;64673;52.276;10.560;2023-03-31T10:18:19;98919.25;;;10.57;86.07
75991;BME280;64673;52.276;10.560;2023-03-31T10:20:50;98911.28;;;10.52;86.41
75991;BME280;64673;52.276;10.560;2023-03-31T10:23:23;98924.69;;;10.35;86.14
75991;BME280;64673;52.276;10.560;2023-03-31T10:25:51;98907.56;;;10.39;89.05
75991;BME280;64673;52.276;10.560;2023-03-31T10:28:18;98915.13;;;10.28;90.12
75991;BME280;64673;52.276;10.560;2023-03-31T10:30:52;98915.13;;;10.28;89.11
75991;BME280;64673;52.276;10.560;2023-03-31T10:33:23;98914.25;;;10.19;89.33
75991;BME280;64673;52.276;10.560;2023-03-31T10:35:55;98909.63;;;10.34;88.80
75991;BME280;64673;52.276;10.560;2023-03-31T10:38:27;98908.75;;;10.24;90.25
75991;BME280;64673;52.276;10.560;2023-03-31T10:40:55;98909.91;;;10.32;90.37
75991;BME280;64673;52.276;10.560;2023-03-31T10:43:28;98919.22;;;10.04;90.61
75991;BME280;64673;52.276;10.560;2023-03-31T10:45:56;98914.22;;;9.97;90.17
75991;BME280;64673;52.276;10.560;2023-03-31T10:48:31;98923.41;;;9.96;90.40
75991;BME280;64673;52.276;10.560;2023-03-31T10:51:28;98920.53;;;9.93;91.25
75991;BME280;64673;52.276;10.560;2023-03-31T10:54:00;98912.06;;;9.85;91.76
75991;BME280;64673;52.276;10.560;2023-03-31T10:56:42;98919.50;;;9.80;91.56
75991;BME280;64673;52.276;10.560;2023-03-31T11:12:23;98906.34;;;9.65;93.18
75991;BME280;64673;52.276;10.560;2023-03-31T11:25:37;98891.81;;;9.66;93.05
75991;BME280;64673;52.276;10.560;2023-03-31T11:28:15;98889.56;;;9.81;91.71
75991;BME280;64673;52.276;10.560;2023-03-31T11:33:39;98887.06;;;9.85;90.24
75991;BME280;64673;52.276;10.560;2023-03-31T11:42:07;98880.31;;;9.96;91.86
75991;BME280;64673;52.276;10.560;2023-03-31T11:44:41;98882.41;;;9.77;91.24
75991;BME280;64673;52.276;10.560;2023-03-31T11:47:13;98877.94;;;9.72;90.48
75991;BME280;64673;52.276;10.560;2023-03-31T11:49:47;98877.25;;;9.67;90.53
75991;BME280;64673;52.276;10.560;2023-03-31T11:52:17;98868.03;;;9.81;92.46
75991;BME280;64673;52.276;10.560;2023-03-31T11:57:32;98863.56;;;9.99;89.46
75991;BME280;64673;52.276;10.560;2023-03-31T12:01:03;98870.19;;;9.93;91.44
75991;BME280;64673;52.276;10.560;2023-03-31T12:03:15;98861.06;;;9.80;91.37
75991;BME280;64673;52.276;10.560;2023-03-31T12:05:48;98854.50;;;9.95;91.80
75991;BME280;64673;52.276;10.560;2023-03-31T12:08:29;98859.16;;;10.03;91.43
75991;BME280;64673;52.276;10.560;2023-03-31T12:11:04;98857.22;;;9.95;90.34
75991;BME280;64673;52.276;10.560;2023-03-31T12:16:12;98858.66;;;10.01;90.76
75991;BME280;64673;52.276;10.560;2023-03-31T12:21:28;98851.56;;;10.05;91.21
75991;BME280;64673;52.276;10.560;2023-03-31T12:23:55;98838.94;;;10.14;90.84
75991;BME280;64673;52.276;10.560;2023-03-31T12:31:42;98845.50;;;10.53;92.20
75991;BME280;64673;52.276;10.560;2023-03-31T12:34:12;98841.59;;;10.68;91.75
75991;BME280;64673;52.276;10.560;2023-03-31T12:47:58;98829.19;;;11.15;90.31
75991;BME280;64673;52.276;10.560;2023-03-31T12:55:48;98824.13;;;11.73;90.73
75991;BME280;64673;52.276;10.560;2023-03-31T13:01:27;98811.75;;;11.72;87.26
75991;BME280;64673;52.276;10.560;2023-03-31T13:04:20;98810.94;;;11.46;89.94
75991;BME280;64673;52.276;10.560;2023-03-31T13:06:50;98796.66;;;11.71;87.23
75991;BME280;64673;52.276;10.560;2023-03-31T13:11:46;98787.28;;;11.95;87.23
75991;BME280;64673;52.276;10.560;2023-03-31T13:14:24;98779.81;;;11.83;87.37
75991;BME280;64673;52.276;10.560;2023-03-31T13:17:11;98786.47;;;12.03;87.51
75991;BME280;64673;52.276;10.560;2023-03-31T13:19:39;98788.41;;;12.32;88.43
75991;BME280;64673;52.276;10.560;2023-03-31T13:22:05;98782.50;;;11.92;85.72
75991;BME280;64673;52.276;10.560;2023-03-31T13:24:31;98775.91;;;12.27;86.24
75991;BME280;64673;52.276;10.560;2023-03-31T13:27:23;98778.28;;;12.20;86.30
75991;BME280;64673;52.276;10.560;2023-03-31T13:29:43;98770.28;;;12.32;86.02
75991;BME280;64673;52.276;10.560;2023-03-31T13:32:19;98762.94;;;12.41;88.10
75991;BME280;64673;52.276;10.560;2023-03-31T13:34:49;98758.78;;;12.44;83.69
75991;BME280;64673;52.276;10.560;2023-03-31T13:43:16;98744.84;;;12.92;77.04
75991;BME280;64673;52.276;10.560;2023-03-31T14:05:26;98733.53;;;12.02;77.52
75991;BME280;64673;52.276;10.560;2023-03-31T14:07:55;98729.72;;;12.03;80.08
75991;BME280;64673;52.276;10.560;2023-03-31T14:12:50;98736.06;;;12.07;80.31
75991;BME280;64673;52.276;10.560;2023-03-31T14:15:18;98730.94;;;12.14;79.50
75991;BME280;64673;52.276;10.560;2023-03-31T14:17:44;98736.78;;;12.25;79.73
75991;BME280;64673;52.276;10.560;2023-03-31T14:23:16;98736.38;;;12.05;79.72
75991;BME280;64673;52.276;10.560;2023-03-31T14:31:25;98720.53;;;12.33;76.31
75991;BME280;64673;52.276;10.560;2023-03-31T14:36:35;98723.31;;;12.75;73.27
75991;BME280;64673;52.276;10.560;2023-03-31T14:39:08;98720.25;;;12.56;76.42
75991;BME280;64673;52.276;10.560;2023-03-31T14:41:35;98723.06;;;12.89;72.73
75991;BME280;64673;52.276;10.560;2023-03-31T14:44:05;98729.38;;;13.22;74.04
75991;BME280;64673;52.276;10.560;2023-03-31T14:46:34;98722.34;;;13.42;71.73
75991;BME280;64673;52.276;10.560;2023-03-31T14:49:11;98728.78;;;13.49;73.25
75991;BME280;64673;52.276;10.560;2023-03-31T14:51:42;98732.72;;;13.19;74.38
75991;BME280;64673;52.276;10.560;2023-03-31T14:54:15;98734.03;;;12.92;73.71
75991;BME280;64673;52.276;10.560;2023-03-31T14:56:41;98732.97;;;13.05;74.46
75991;BME280;64673;52.276;10.560;2023-03-31T14:59:07;98732.88;;;13.23;77.96
75991;BME280;64673;52.276;10.560;2023-03-31T15:01:34;98730.94;;;13.02;77.34
75991;BME280;64673;52.276;10.560;2023-03-31T15:04:09;98726.69;;;13.67;78.29
75991;BME280;64673;52.276;10.560;2023-03-31T15:06:35;98718.81;;;15.20;75.41
75991;BME280;64673;52.276;10.560;2023-03-31T15:09:04;98721.28;;;16.13;70.89
75991;BME280;64673;52.276;10.560;2023-03-31T15:11:30;98717.03;;;17.13;67.18
75991;BME280;64673;52.276;10.560;2023-03-31T15:13:56;98717.25;;;17.04;60.67
75991;BME280;64673;52.276;10.560;2023-03-31T15:16:36;98716.47;;;16.22;59.09
75991;BME280;64673;52.276;10.560;2023-03-31T15:19:22;98717.88;;;15.84;65.14
75991;BME280;64673;52.276;10.560;2023-03-31T15:24:28;98720.28;;;14.65;69.86
75991;BME280;64673;52.276;10.560;2023-03-31T15:27:18;98718.13;;;14.35;72.05
75991;BME280;64673;52.276;10.560;2023-03-31T15:29:51;98725.34;;;13.61;73.50
75991;BME280;64673;52.276;10.560;2023-03-31T15:32:26;98713.81;;;13.10;74.80
75991;BME280;64673;52.276;10.560;2023-03-31T15:34:53;98723.84;;;12.89;73.82
75991;BME280;64673;52.276;10.560;2023-03-31T15:37:24;98719.88;;;12.87;77.19
75991;BME280;64673;52.276;10.560;2023-03-31T15:39:54;98715.66;;;12.77;74.93
75991;BME280;64673;52.276;10.560;2023-03-31T15:42:20;98721.59;;;12.70;75.20
75991;BME280;64673;52.276;10.560;2023-03-31T15:47:36;98711.19;;;12.22;74.14
75991;BME280;64673;52.276;10.560;2023-03-31T15:52:37;98709.47;;;12.18;77.23
75991;BME280;64673;52.276;10.560;2023-03-31T15:55:39;98698.00;;;12.21;76.56
75991;BME280;64673;52.276;10.560;2023-03-31T15:58:05;98699.31;;;12.15;76.08
75991;BME280;64673;52.276;10.560;2023-03-31T16:02:57;98691.38;;;12.09;76.09
75991;BME280;64673;52.276;10.560;2023-03-31T16:05:48;98702.91;;;12.27;75.38